ADDS METAR Data INFO
IDs: Format: Raw Decoded Include TAF

Data at: 2146 UTC 15 Dec 2017

KSDA 152135Z AUTO 23018KT 10SM CLR 09/M04 A2990 RMK AO2
KSDA 152115Z AUTO 23016G24KT 10SM CLR 09/M04 A2990 RMK AO2
KSDA 152055Z AUTO 23018G25KT 10SM CLR 09/M04 A2991 RMK AO2
KSDA 152035Z AUTO 22016G25KT 10SM CLR 09/M04 A2992 RMK AO2
KSDA 152015Z AUTO 22017G23KT 10SM CLR 09/M04 A2993 RMK AO2
KSDA 151955Z AUTO 23020G29KT 10SM CLR 08/M04 A2994 RMK AO2
KSDA 151935Z AUTO 24020KT 10SM CLR 08/M05 A2996 RMK AO2
KSDA 151915Z AUTO 25021G29KT 10SM CLR 08/M05 A2996 RMK AO2
KSDA 151855Z AUTO 24019G26KT 10SM CLR 07/M06 A2998 RMK AO2
KSDA 151835Z AUTO 24019G25KT 10SM CLR 07/M06 A2999 RMK AO2
KSDA 151815Z AUTO 24019G26KT 10SM CLR 07/M06 A3001 RMK AO2
KSDA 151755Z AUTO 23019G26KT 10SM CLR 07/M06 A3001 RMK AO2
KSDA 151735Z AUTO 24019KT 10SM CLR 06/M07 A3003 RMK AO2
KSDA 151715Z AUTO 23017G22KT 10SM CLR 06/M06 A3005 RMK AO2
KSDA 151655Z AUTO 24014G19KT 10SM CLR 05/M05 A3007 RMK AO2
KSDA 151635Z AUTO 25013G18KT 10SM CLR 04/M06 A3008 RMK AO2
KSDA 151615Z AUTO 24014KT 10SM CLR 04/M05 A3008 RMK AO2
KSDA 151555Z AUTO 23013KT 10SM CLR 03/M04 A3008 RMK AO2
KSDA 151535Z AUTO 24011KT 10SM CLR 02/M04 A3008 RMK AO2
KSDA 151515Z AUTO 24009KT 10SM FEW055 01/M03 A3008 RMK AO2
KSDA 151455Z AUTO 23008KT 10SM CLR 01/M03 A3008 RMK AO2
KSDA 151435Z AUTO 23007KT 10SM CLR 00/M03 A3009 RMK AO2
KSDA 151415Z AUTO 23008KT 10SM BKN055 M01/M03 A3009 RMK AO2
KSDA 151355Z AUTO 22007KT 10SM OVC050 00/M03 A3010 RMK AO2
KSDA 151335Z AUTO 24008KT 10SM OVC050 00/M02 A3010 RMK AO2
KSDA 151315Z AUTO 24009KT 10SM OVC050 00/M03 A3010 RMK AO2
KSDA 151255Z AUTO 23008KT 10SM OVC050 00/M03 A3009 RMK AO2
KSDA 151235Z AUTO 22006KT 10SM OVC050 M00/M03 A3010 RMK AO2
KSDA 151215Z AUTO 23006KT 10SM OVC050 M00/M03 A3010 RMK AO2
KSDA 151155Z AUTO 22007KT 10SM OVC050 00/M04 A3010 RMK AO2
KSDA 151135Z AUTO 23005KT 10SM OVC050 M00/M04 A3010 RMK AO2
KSDA 151115Z AUTO 23005KT 10SM OVC050 M00/M04 A3011 RMK AO2
KSDA 151055Z AUTO 22007KT 10SM OVC050 M00/M04 A3011 RMK AO2
KSDA 151035Z AUTO 22005KT 10SM OVC050 M01/M04 A3012 RMK AO2
KSDA 151015Z AUTO 00000KT 10SM OVC048 M00/M04 A3013 RMK AO2
KSDA 150955Z AUTO 29004KT 10SM OVC048 M00/M04 A3013 RMK AO2
KSDA 150935Z AUTO 00000KT 10SM OVC048 00/M04 A3013 RMK AO2
KSDA 150915Z AUTO 32003KT 10SM OVC049 00/M05 A3013 RMK AO2
KSDA 150855Z AUTO 31006G11KT 10SM BKN050 00/M05 A3013 RMK AO2
KSDA 150835Z AUTO 32006KT 10SM BKN055 00/M05 A3014 RMK AO2
KSDA 150815Z AUTO 33010G17KT 10SM BKN050 01/M04 A3014 RMK AO2
KSDA 150755Z AUTO 33013G21KT 10SM FEW029 OVC049 02/M04 A3013 RMK AO2
KSDA 150735Z AUTO 32009KT 10SM BKN029 BKN035 OVC055 02/M03 A3013 RMK AO2
KSDA 150715Z AUTO 33008G14KT 10SM FEW033 OVC055 02/M03 A3012 RMK AO2
KSDA 150655Z AUTO 33011KT 10SM FEW031 FEW036 OVC055 02/M03 A3012 RMK AO2
KSDA 150635Z AUTO 33007KT 10SM SCT050 OVC060 03/M03 A3013 RMK AO2
KSDA 150615Z AUTO 30006KT 10SM BKN050 OVC060 02/M03 A3012 RMK AO2
KSDA 150555Z AUTO 32006KT 10SM OVC050 02/M03 A3013 RMK AO2
KSDA 150535Z AUTO 24004KT 10SM OVC049 00/M03 A3013 RMK AO2
KSDA 150515Z AUTO 23003KT 10SM FEW026 SCT036 OVC050 00/M04 A3013 RMK AO2
KSDA 150455Z AUTO 23003KT 10SM BKN027 OVC036 00/M04 A3013 RMK AO2
KSDA 150435Z AUTO 23004KT 10SM SCT029 OVC035 00/M04 A3013 RMK AO2
KSDA 150415Z AUTO 23003KT 10SM BKN037 OVC046 M00/M04 A3013 RMK AO2
KSDA 150355Z AUTO 00000KT 10SM BKN039 BKN046 OVC055 M00/M04 A3014 RMK AO2
KSDA 150335Z AUTO 24003KT 10SM SCT040 OVC055 M01/M04 A3014 RMK AO2
KSDA 150315Z AUTO 23004KT 10SM BKN041 OVC055 M01/M04 A3014 RMK AO2
KSDA 150255Z AUTO 24004KT 10SM OVC050 M01/M04 A3013 RMK AO2
KSDA 150235Z AUTO 00000KT 10SM OVC050 M00/M05 A3013 RMK AO2
KSDA 150215Z AUTO 00000KT 10SM FEW044 SCT050 M01/M04 A3013 RMK AO2
KSDA 150155Z AUTO 00000KT 10SM FEW070 BKN080 M00/M05 A3013 RMK AO2
KSDA 150135Z AUTO 00000KT 10SM BKN045 BKN070 OVC080 01/M04 A3011 RMK AO2
KSDA 150115Z AUTO 00000KT 10SM OVC045 01/M04 A3012 RMK AO2
KSDA 150055Z AUTO 03004KT 10SM BKN040 OVC049 01/M04 A3012 RMK AO2
KSDA 150035Z AUTO 02006KT 7SM OVC037 02/M04 A3012 RMK AO2
KSDA 150015Z AUTO 02007KT 10SM OVC039 03/M04 A3011 RMK AO2
KSDA 142355Z AUTO 01003KT 10SM OVC040 02/M04 A3010 RMK AO2
KSDA 142335Z AUTO 01006KT 10SM OVC040 03/M04 A3010 RMK AO2
KSDA 142315Z AUTO 36006KT 10SM OVC042 03/M04 A3010 RMK AO2
KSDA 142255Z AUTO 35005KT 10SM OVC042 04/M04 A3009 RMK AO2
KSDA 142235Z AUTO 34006KT 10SM OVC043 05/M04 A3008 RMK AO2
KSDA 142215Z AUTO 34009KT 10SM OVC044 05/M04 A3008 RMK AO2
KSDA 142155Z AUTO 34009KT 10SM BKN043 OVC070 05/M04 A3007 RMK AO2
KSDA 142135Z AUTO 35009KT 10SM OVC042 05/M04 A3007 RMK AO2
KSDA 142115Z AUTO 33009KT 10SM OVC041 05/M04 A3007 RMK AO2
KSDA 142055Z AUTO 31008KT 10SM BKN041 05/M04 A3006 RMK AO2
KSDA 142035Z AUTO 30008KT 10SM BKN042 05/M04 A3006 RMK AO2
KSDA 142015Z AUTO 33006KT 10SM OVC044 05/M04 A3006 RMK AO2
KSDA 141955Z AUTO 30005G10KT 10SM OVC043 05/M04 A3006 RMK AO2
KSDA 141935Z AUTO 31008KT 10SM OVC042 05/M04 A3006 RMK AO2
KSDA 141915Z AUTO 29006KT 10SM BKN041 BKN048 05/M04 A3006 RMK AO2
KSDA 141855Z AUTO 27005KT 10SM BKN036 BKN044 05/M04 A3006 RMK AO2
KSDA 141835Z AUTO 30007KT 10SM BKN035 OVC040 04/M04 A3007 RMK AO2
KSDA 141815Z AUTO VRB05KT 10SM SCT038 OVC047 04/M04 A3008 RMK AO2
KSDA 141755Z AUTO 00000KT 10SM OVC047 04/M03 A3008 RMK AO2
KSDA 141735Z AUTO 00000KT 10SM OVC047 03/M03 A3009 RMK AO2
KSDA 141715Z AUTO 00000KT 10SM OVC046 03/M02 A3009 RMK AO2
KSDA 141655Z AUTO 00000KT 10SM OVC046 03/M02 A3010 RMK AO2
KSDA 141635Z AUTO 00000KT 10SM OVC046 02/M02 A3010 RMK AO2
KSDA 141615Z AUTO 00000KT 10SM OVC045 02/M03 A3009 RMK AO2
KSDA 141555Z AUTO 00000KT 10SM OVC045 01/M03 A3009 RMK AO2
KSDA 141535Z AUTO 00000KT 10SM OVC044 01/M03 A3009 RMK AO2
KSDA 141515Z AUTO 00000KT 10SM OVC042 01/M03 A3009 RMK AO2
KSDA 141455Z AUTO 00000KT 10SM FEW020 OVC042 01/M03 A3009 RMK AO2
KSDA 141435Z AUTO 00000KT 10SM OVC044 00/M03 A3009 RMK AO2
KSDA 141415Z AUTO 12003KT 10SM FEW029 FEW036 OVC043 00/M03 A3008 RMK AO2
KSDA 141355Z AUTO 00000KT 10SM FEW021 SCT029 BKN036 00/M03 A3008 RMK AO2
KSDA 141335Z AUTO 04005KT 10SM SCT021 BKN028 OVC041 00/M03 A3007 RMK AO2
KSDA 141315Z AUTO 04005KT 10SM FEW022 OVC041 00/M04 A3007 RMK AO2
KSDA 141255Z AUTO 05003KT 10SM OVC039 00/M03 A3006 RMK AO2
KSDA 141235Z AUTO 34003KT 10SM OVC041 01/M03 A3006 RMK AO2
KSDA 141215Z AUTO 30003KT 10SM OVC042 01/M03 A3005 RMK AO2
KSDA 141155Z AUTO 00000KT 10SM FEW030 OVC042 01/M03 A3004 RMK AO2
KSDA 141135Z AUTO 00000KT 10SM FEW031 OVC041 01/M03 A3004 RMK AO2
KSDA 141115Z AUTO 33004KT 10SM OVC038 02/M03 A3004 RMK AO2
KSDA 141055Z AUTO 33004KT OVC040 02/M03 A3004 RMK AO2
KSDA 141035Z AUTO 32004KT 10SM OVC040 02/M03 A3003 RMK AO2
KSDA 141015Z AUTO 33004KT 10SM OVC041 02/M04 A3003 RMK AO2
KSDA 140955Z AUTO 34003KT 10SM OVC041 02/M04 A3002 RMK AO2